Eden Valley, Minnesota
Current Conditions -  °F | °C
As of 11:34 AM on Wednesday 26 Nov 2014 (Local Time) from KPEX Reporting Station
Overcast Overcast  
Wind Chill: -14°   Ceiling: 1400
Heat Index: -7°   Visibility: 10mi
Dew Point: -10°   Wind: 13mph
Humidity: 83%   Direction: 330°NNW
Pressure: 30.21"   Gusts: NA
Location:  45.33°N, 94.55°W
Report Text: KPEX 261734Z AUTO 33011KT 10SM OVC014 M07/M09 A3021 RMK AO2 T10701095
Loading
Personal Weather Stations






























Interactive Weather Map New forecast layout! Learn more

10-Day Weather Forecast

Advertisements
Track Severe Weather on mobile